createdAt,value
2018-10-11T00:00:14.570Z,20.10
2018-10-11T00:02:45.775Z,18.63
2018-10-11T00:05:16.868Z,19.57
2018-10-11T00:07:48.046Z,20.03
2018-10-11T00:10:19.163Z,20.20
2018-10-11T00:12:50.377Z,17.27
2018-10-11T00:15:21.566Z,19.80
2018-10-11T00:17:52.778Z,19.60
2018-10-11T00:20:23.931Z,20.00
2018-10-11T00:22:55.083Z,19.93
2018-10-11T00:25:26.194Z,20.77
2018-10-11T00:27:57.342Z,21.10
2018-10-11T00:30:28.564Z,20.83
2018-10-11T00:32:59.697Z,21.83
2018-10-11T00:35:30.812Z,21.80
2018-10-11T00:38:02.106Z,19.90
2018-10-11T00:40:33.169Z,20.37
2018-10-11T00:43:04.434Z,21.00
2018-10-11T00:45:35.533Z,19.80
2018-10-11T00:48:06.882Z,21.67
2018-10-11T00:50:37.994Z,19.87
2018-10-11T00:53:09.073Z,20.70
2018-10-11T00:55:40.106Z,21.07
2018-10-11T00:58:11.415Z,21.33
2018-10-11T01:00:42.538Z,20.73
2018-10-11T01:03:13.725Z,19.97
2018-10-11T01:05:44.840Z,20.97
2018-10-11T01:08:16.069Z,21.07
2018-10-11T01:10:47.277Z,22.07
2018-10-11T01:13:18.473Z,21.20
2018-10-11T01:15:49.607Z,22.37
2018-10-11T01:18:20.827Z,21.40
2018-10-11T01:20:51.913Z,20.97
2018-10-11T01:23:23.167Z,22.33
2018-10-11T01:25:54.329Z,21.17
2018-10-11T01:28:25.854Z,22.30
2018-10-11T01:31:01.730Z,22.53
2018-10-11T01:33:33.027Z,22.13
2018-10-11T01:36:04.221Z,23.20
2018-10-11T01:38:35.460Z,21.27
2018-10-11T01:41:06.720Z,21.27
2018-10-11T01:43:37.995Z,22.60
2018-10-11T01:46:09.226Z,21.53
2018-10-11T01:48:40.515Z,23.23
2018-10-11T01:51:11.874Z,23.97
2018-10-11T01:53:43.103Z,22.90
2018-10-11T01:56:14.268Z,23.07
2018-10-11T01:58:45.421Z,23.93
2018-10-11T02:01:16.506Z,22.43
2018-10-11T02:03:47.762Z,22.37
2018-10-11T02:06:18.924Z,22.57
2018-10-11T02:08:50.192Z,23.07
2018-10-11T02:11:21.314Z,23.60
2018-10-11T02:13:52.458Z,23.23
2018-10-11T02:16:23.582Z,23.97
2018-10-11T02:18:54.757Z,22.93
2018-10-11T02:21:25.878Z,23.03
2018-10-11T02:23:57.038Z,23.40
2018-10-11T02:26:28.131Z,23.80
2018-10-11T02:28:59.326Z,23.30
2018-10-11T02:31:30.491Z,23.37
2018-10-11T02:34:01.856Z,24.27
2018-10-11T02:36:32.970Z,24.73
2018-10-11T02:39:04.266Z,24.97
2018-10-11T02:41:35.371Z,24.03
2018-10-11T02:44:06.622Z,24.03
2018-10-11T02:46:37.653Z,24.23
2018-10-11T02:49:08.931Z,22.47
2018-10-11T02:51:40.117Z,23.37
2018-10-11T02:54:11.387Z,24.20
2018-10-11T02:56:42.877Z,25.63
2018-10-11T02:59:38.984Z,25.40
2018-10-11T03:02:14.990Z,25.17
2018-10-11T03:04:48.888Z,25.63
2018-10-11T03:07:20.910Z,24.20
2018-10-11T03:09:52.374Z,24.80
2018-10-11T03:12:23.577Z,24.37
2018-10-11T03:14:54.677Z,25.97
2018-10-11T03:17:25.838Z,24.57
2018-10-11T03:19:56.894Z,24.97
2018-10-11T03:22:27.912Z,26.07
2018-10-11T03:24:59.058Z,23.30
2018-10-11T03:27:30.231Z,24.23
2018-10-11T03:30:01.352Z,25.87
2018-10-11T03:32:32.405Z,24.73
2018-10-11T03:35:03.547Z,25.10
2018-10-11T03:37:34.623Z,25.93
2018-10-11T03:40:05.807Z,25.03
2018-10-11T03:42:36.778Z,26.77
2018-10-11T03:45:08.024Z,24.57
2018-10-11T03:47:39.127Z,26.30
2018-10-11T03:50:10.229Z,25.30
2018-10-11T03:52:41.402Z,26.03
2018-10-11T03:55:12.524Z,23.63
2018-10-11T03:57:43.557Z,26.63
2018-10-11T04:00:14.627Z,25.13
2018-10-11T04:02:45.698Z,25.70
2018-10-11T04:05:16.839Z,25.23
2018-10-11T04:07:48.067Z,25.33
2018-10-11T04:10:19.171Z,26.43
2018-10-11T04:12:50.287Z,26.70
2018-10-11T04:15:21.495Z,26.37
2018-10-11T04:17:52.597Z,26.20
2018-10-11T04:20:23.758Z,26.67
2018-10-11T04:22:54.765Z,24.27
2018-10-11T04:25:26.415Z,25.97
2018-10-11T04:27:57.614Z,27.00
2018-10-11T04:30:28.529Z,25.87
2018-10-11T04:33:00.555Z,25.03
2018-10-11T04:35:31.475Z,24.07
2018-10-11T04:38:01.614Z,27.23
2018-10-11T04:40:32.774Z,26.17
2018-10-11T04:43:03.037Z,27.00
2018-10-11T04:45:33.030Z,22.97
2018-10-11T04:48:03.072Z,27.13
2018-10-11T04:50:33.249Z,25.50
2018-10-11T04:53:03.297Z,26.63
2018-10-11T04:55:33.400Z,25.47
2018-10-11T04:58:03.452Z,27.60
2018-10-11T05:00:33.545Z,26.20
2018-10-11T05:03:03.568Z,27.27
2018-10-11T05:05:33.609Z,28.53
2018-10-11T05:08:03.678Z,23.70
2018-10-11T05:10:33.859Z,24.60
2018-10-11T05:13:04.054Z,24.93
2018-10-11T05:15:35.569Z,25.47
2018-10-11T05:18:07.466Z,27.03
2018-10-11T05:20:37.574Z,25.33
2018-10-11T05:23:07.960Z,26.47
2018-10-11T05:25:38.052Z,25.10
2018-10-11T05:28:08.186Z,26.50
2018-10-11T05:30:44.697Z,27.47
2018-10-11T05:33:15.961Z,27.33
2018-10-11T05:35:46.038Z,26.97
2018-10-11T05:38:16.181Z,26.63
2018-10-11T05:40:46.321Z,28.90
2018-10-11T05:43:16.851Z,29.40
2018-10-11T05:45:54.924Z,27.23
2018-10-11T05:48:27.010Z,26.97
2018-10-11T05:50:58.638Z,26.70
2018-10-11T05:53:29.862Z,28.63
2018-10-11T05:56:00.469Z,27.57
2018-10-11T05:58:31.013Z,26.80
2018-10-11T06:01:01.276Z,26.53
2018-10-11T06:03:31.636Z,27.60
2018-10-11T06:06:01.728Z,28.03
2018-10-11T06:08:31.964Z,27.57
2018-10-11T06:11:02.364Z,28.17
2018-10-11T06:13:36.059Z,28.73
2018-10-11T06:16:06.312Z,28.87
2018-10-11T06:18:36.699Z,28.37
2018-10-11T06:21:07.041Z,26.90
2018-10-11T06:23:37.239Z,27.17
2018-10-11T06:26:07.735Z,26.03
2018-10-11T06:28:38.109Z,27.07
2018-10-11T06:31:08.276Z,27.73
2018-10-11T06:33:38.629Z,26.50
2018-10-11T06:36:08.950Z,23.67
2018-10-11T06:38:39.165Z,24.83
2018-10-11T06:41:09.425Z,26.50
2018-10-11T06:43:40.289Z,24.80
2018-10-11T06:46:10.593Z,26.27
2018-10-11T06:48:41.048Z,24.20
2018-10-11T06:51:11.252Z,27.47
2018-10-11T06:53:41.728Z,25.60
2018-10-11T06:56:11.825Z,26.03
2018-10-11T07:01:44.300Z,24.53
2018-10-11T07:04:14.548Z,25.40
2018-10-11T07:06:44.658Z,24.80
2018-10-11T07:09:14.702Z,25.23
2018-10-11T07:11:44.797Z,23.57
2018-10-11T07:14:14.830Z,23.50
2018-10-11T07:16:44.915Z,24.47
2018-10-11T07:19:15.003Z,25.27
2018-10-11T07:21:45.778Z,22.73
2018-10-11T07:24:15.925Z,25.03
2018-10-11T07:26:46.020Z,24.97
2018-10-11T07:29:16.136Z,23.50
2018-10-11T07:31:46.292Z,23.60
2018-10-11T07:34:16.421Z,23.90
2018-10-11T07:36:46.539Z,24.03
2018-10-11T07:39:16.628Z,24.03
2018-10-11T07:41:46.748Z,24.50
2018-10-11T07:44:16.822Z,25.13
2018-10-11T07:46:46.935Z,23.33
2018-10-11T07:49:17.001Z,24.27
2018-10-11T07:51:47.170Z,23.00
2018-10-11T07:54:18.342Z,24.33
2018-10-11T07:56:48.456Z,23.40
2018-10-11T07:59:18.522Z,22.37
2018-10-11T08:01:48.747Z,23.47
2018-10-11T08:04:18.840Z,23.13
2018-10-11T08:06:48.921Z,23.70
2018-10-11T08:09:19.004Z,22.23
2018-10-11T08:11:49.237Z,22.07
2018-10-11T08:14:19.421Z,22.10
2018-10-11T08:16:49.692Z,22.33
2018-10-11T08:19:19.842Z,22.63
2018-10-11T08:21:49.789Z,21.43
2018-10-11T08:24:20.024Z,20.63
2018-10-11T08:26:50.144Z,22.53
2018-10-11T08:29:20.246Z,22.03
2018-10-11T08:31:50.363Z,20.60
2018-10-11T08:34:20.524Z,21.63
2018-10-11T08:36:50.630Z,23.67
2018-10-11T08:39:20.713Z,21.50
2018-10-11T08:41:50.763Z,21.83
2018-10-11T08:44:20.959Z,22.50
2018-10-11T08:46:51.027Z,21.83
2018-10-11T08:49:21.157Z,21.33
2018-10-11T08:51:51.252Z,21.47
2018-10-11T08:54:26.269Z,20.33
2018-10-11T08:56:56.458Z,19.87
2018-10-11T08:59:26.639Z,20.70
2018-10-11T09:01:56.706Z,21.73
2018-10-11T09:04:26.813Z,19.70
2018-10-11T09:06:56.863Z,19.83
2018-10-11T09:09:27.004Z,19.03
2018-10-11T09:11:57.086Z,18.83
2018-10-11T09:14:27.264Z,20.37
2018-10-11T09:16:57.352Z,19.80
2018-10-11T09:19:27.481Z,19.33
2018-10-11T09:21:57.505Z,19.90
2018-10-11T09:24:27.669Z,19.27
2018-10-11T09:26:57.832Z,19.67
2018-10-11T09:29:27.917Z,18.67
2018-10-11T09:31:57.994Z,18.87
2018-10-11T09:34:28.177Z,19.53
2018-10-11T09:36:58.300Z,18.10
2018-10-11T09:39:28.365Z,17.87
2018-10-11T09:41:58.466Z,17.93
2018-10-11T09:44:28.719Z,18.67
2018-10-11T09:46:58.822Z,17.87
2018-10-11T09:49:28.920Z,17.53
2018-10-11T09:51:59.021Z,17.63
2018-10-11T09:54:29.228Z,17.53
2018-10-11T09:57:31.044Z,16.77
2018-10-11T10:00:02.438Z,17.27
2018-10-11T10:02:32.760Z,17.47
2018-10-11T10:05:04.036Z,17.57
2018-10-11T10:07:34.197Z,16.60
2018-10-11T10:10:04.519Z,15.90
2018-10-11T10:12:34.549Z,16.93
2018-10-11T10:15:05.024Z,16.87
2018-10-11T10:17:35.662Z,17.80
2018-10-11T10:20:05.977Z,16.60
2018-10-11T10:22:36.113Z,15.83
2018-10-11T10:25:06.317Z,16.83
2018-10-11T10:27:36.488Z,15.60
2018-10-11T10:30:12.268Z,15.97
2018-10-11T10:32:42.325Z,16.23
2018-10-11T10:35:12.445Z,15.53
2018-10-11T10:37:42.531Z,16.37
2018-10-11T10:40:12.641Z,16.27
2018-10-11T10:42:42.682Z,15.70
2018-10-11T10:45:12.839Z,15.60
2018-10-11T10:47:42.948Z,14.93
2018-10-11T10:50:13.052Z,14.17
2018-10-11T10:52:43.157Z,14.13
2018-10-11T10:55:13.245Z,14.07
2018-10-11T10:57:43.389Z,14.93
2018-10-11T11:00:13.541Z,13.93
2018-10-11T11:02:43.649Z,13.97
2018-10-11T11:05:13.742Z,13.53
2018-10-11T11:07:43.948Z,13.13
2018-10-11T11:10:14.081Z,13.87
2018-10-11T11:12:44.228Z,13.00
2018-10-11T11:15:14.325Z,13.20
2018-10-11T11:17:44.546Z,13.97
2018-10-11T11:20:14.608Z,13.17
2018-10-11T11:22:44.710Z,13.50
2018-10-11T11:25:14.873Z,13.30
2018-10-11T11:27:44.952Z,12.07
2018-10-11T11:30:15.115Z,12.87
2018-10-11T11:32:45.161Z,12.80
2018-10-11T11:35:15.287Z,12.67
2018-10-11T11:37:45.397Z,12.17
2018-10-11T11:40:15.553Z,13.70
2018-10-11T11:42:45.635Z,13.20
2018-10-11T11:45:15.756Z,12.17
2018-10-11T11:47:45.847Z,12.00
2018-10-11T11:50:15.949Z,12.27
2018-10-11T11:52:46.001Z,13.00
2018-10-11T11:55:16.110Z,12.27
2018-10-11T11:57:46.182Z,12.47
2018-10-11T12:00:16.277Z,11.90
2018-10-11T12:02:46.463Z,11.50
2018-10-11T12:05:16.605Z,13.13
2018-10-11T12:07:46.644Z,12.10
2018-10-11T12:10:16.808Z,12.90
2018-10-11T12:12:58.496Z,11.40
2018-10-11T12:15:29.614Z,11.53
2018-10-11T12:18:00.844Z,11.90
2018-10-11T12:20:33.977Z,12.53
2018-10-11T12:23:05.403Z,11.90
2018-10-11T12:25:35.727Z,11.70
2018-10-11T12:28:05.813Z,11.70
2018-10-11T12:30:35.967Z,12.07
2018-10-11T12:33:06.168Z,12.63
2018-10-11T12:35:36.270Z,12.00
2018-10-11T12:38:06.353Z,12.37
2018-10-11T12:40:36.548Z,11.60
2018-10-11T12:43:06.656Z,11.87
2018-10-11T12:45:37.519Z,11.57
2018-10-11T12:48:06.954Z,11.93
2018-10-11T12:50:37.261Z,11.70
2018-10-11T12:53:08.521Z,11.60
2018-10-11T12:55:38.628Z,11.63
2018-10-11T12:58:08.755Z,12.00
2018-10-11T13:00:38.860Z,11.83
2018-10-11T13:03:09.256Z,11.40
2018-10-11T13:05:39.369Z,11.37
2018-10-11T13:08:09.520Z,10.90
2018-10-11T13:10:39.630Z,11.83
2018-10-11T13:13:10.025Z,11.17
2018-10-11T13:15:40.188Z,11.10
2018-10-11T13:18:10.260Z,10.83
2018-10-11T13:20:40.393Z,10.50
2018-10-11T13:23:14.513Z,11.43
2018-10-11T13:25:41.109Z,11.35
2018-10-11T13:28:11.452Z,10.72
2018-10-11T13:30:41.725Z,11.08
2018-10-11T13:33:11.624Z,10.93
2018-10-11T13:35:41.686Z,11.05
2018-10-11T13:38:11.780Z,10.25
2018-10-11T13:40:42.122Z,10.53
2018-10-11T13:43:11.920Z,9.95
2018-10-11T13:45:41.965Z,10.90
2018-10-11T13:48:12.053Z,11.08
2018-10-11T13:50:42.098Z,10.63
2018-10-11T13:53:15.422Z,10.18
2018-10-11T13:55:46.940Z,10.82
2018-10-11T13:58:12.481Z,11.08
2018-10-11T14:00:42.726Z,11.68
2018-10-11T14:03:12.852Z,10.48
2018-10-11T14:05:42.904Z,11.60
2018-10-11T14:08:13.084Z,11.38
2018-10-11T14:10:43.234Z,10.93
2018-10-11T14:13:15.772Z,10.30
2018-10-11T14:15:43.454Z,11.50
2018-10-11T14:18:14.037Z,11.73
2018-10-11T14:20:44.236Z,10.57
2018-10-11T14:23:14.362Z,11.30
2018-10-11T14:25:44.428Z,10.73
2018-10-11T14:28:14.528Z,11.00
2018-10-11T14:30:44.585Z,12.03
2018-10-11T14:33:14.680Z,10.63
2018-10-11T14:35:44.824Z,10.80
2018-10-11T14:38:14.944Z,10.87
2018-10-11T14:40:45.014Z,10.90
2018-10-11T14:43:16.181Z,11.13
2018-10-11T14:45:46.437Z,10.60
2018-10-11T14:48:16.567Z,10.63
2018-10-11T14:50:46.701Z,10.30
2018-10-11T14:53:16.829Z,10.33
2018-10-11T14:55:47.013Z,10.30
2018-10-11T14:58:17.062Z,10.18
2018-10-11T15:00:47.214Z,10.03
2018-10-11T15:03:17.372Z,9.75
2018-10-11T15:05:47.447Z,10.25
2018-10-11T15:08:17.500Z,9.88
2018-10-11T15:10:47.632Z,9.98
2018-10-11T15:13:17.752Z,10.78
2018-10-11T15:15:48.061Z,10.08
2018-10-11T15:18:18.145Z,10.05
2018-10-11T15:20:48.260Z,9.98
2018-10-11T15:23:18.329Z,10.93
2018-10-11T15:25:48.476Z,11.73
2018-10-11T15:28:18.564Z,11.30
2018-10-11T15:30:48.701Z,11.08
2018-10-11T15:33:18.812Z,10.72
2018-10-11T15:35:49.039Z,10.72
2018-10-11T15:38:19.097Z,11.10
2018-10-11T15:40:49.204Z,10.60
2018-10-11T15:43:19.281Z,10.30
2018-10-11T15:45:49.409Z,11.28
2018-10-11T15:48:19.460Z,11.27
2018-10-11T15:50:49.679Z,10.17
2018-10-11T15:53:19.808Z,10.23
2018-10-11T15:55:49.948Z,11.43
2018-10-11T15:58:20.072Z,10.87
2018-10-11T16:00:50.240Z,10.97
2018-10-11T16:03:20.376Z,10.80
2018-10-11T16:05:50.661Z,10.93
2018-10-11T16:08:20.735Z,11.17
2018-10-11T16:10:50.861Z,10.70
2018-10-11T16:13:20.954Z,11.13
2018-10-11T16:15:51.017Z,10.93
2018-10-11T16:18:21.139Z,10.93
2018-10-11T16:20:51.252Z,11.30
2018-10-11T16:23:21.389Z,10.33
2018-10-11T16:25:51.471Z,11.70
2018-10-11T16:28:21.676Z,11.07
2018-10-11T16:30:51.716Z,11.90
2018-10-11T16:33:21.945Z,11.90
2018-10-11T16:35:52.096Z,11.33
2018-10-11T16:38:22.266Z,10.97
2018-10-11T16:40:52.304Z,11.40
2018-10-11T16:43:22.422Z,14.23
2018-10-11T16:45:52.582Z,17.03
2018-10-11T16:48:22.709Z,17.53
2018-10-11T16:50:52.832Z,17.03
2018-10-11T16:53:22.942Z,16.43
2018-10-11T16:55:53.032Z,16.37
2018-10-11T16:58:23.165Z,15.40
2018-10-11T17:00:53.250Z,16.00
2018-10-11T17:03:23.959Z,14.90
2018-10-11T17:05:54.042Z,15.07
2018-10-11T17:08:24.128Z,13.67
2018-10-11T17:10:54.196Z,13.10
2018-10-11T17:13:24.289Z,13.50
2018-10-11T17:15:54.332Z,12.93
2018-10-11T17:18:24.374Z,12.33
2018-10-11T17:20:54.416Z,13.30
2018-10-11T17:23:24.576Z,13.90
2018-10-11T17:25:54.641Z,12.30
2018-10-11T17:28:24.707Z,14.77
2018-10-11T17:30:54.839Z,15.33
2018-10-11T17:33:32.564Z,14.10
2018-10-11T17:36:02.816Z,15.00
2018-10-11T17:38:33.464Z,13.77
2018-10-11T17:41:04.709Z,13.67
2018-10-11T17:43:34.825Z,12.80
2018-10-11T17:46:04.952Z,13.00
2018-10-11T17:48:35.053Z,11.83
2018-10-11T17:51:05.225Z,11.53
2018-10-11T17:53:35.594Z,13.17
2018-10-11T17:56:05.836Z,12.50
2018-10-11T17:58:35.956Z,13.20
2018-10-11T18:01:06.166Z,12.40
2018-10-11T18:03:36.293Z,11.70
2018-10-11T18:06:06.390Z,11.93
2018-10-11T18:08:36.846Z,11.60
2018-10-11T18:11:07.086Z,11.70
2018-10-11T18:13:37.202Z,12.03
2018-10-11T18:16:07.525Z,12.83
2018-10-11T18:18:37.700Z,13.07
2018-10-11T18:21:07.917Z,12.20
2018-10-11T18:23:38.021Z,13.57
2018-10-11T18:26:08.299Z,11.53
2018-10-11T18:28:38.509Z,11.73
2018-10-11T18:31:09.762Z,11.03
2018-10-11T18:33:39.956Z,12.10
2018-10-11T18:36:10.267Z,11.50
2018-10-11T18:38:41.688Z,11.73
2018-10-11T18:41:11.943Z,11.40
2018-10-11T18:43:42.046Z,11.87
2018-10-11T18:46:12.505Z,10.97
2018-10-11T18:48:44.168Z,12.87
2018-10-11T18:51:14.363Z,12.93
2018-10-11T18:53:45.473Z,12.13
2018-10-11T18:56:15.981Z,11.77
2018-10-11T18:58:46.282Z,12.57
2018-10-11T19:01:16.491Z,11.83
2018-10-11T19:03:46.827Z,11.97
2018-10-11T19:06:17.065Z,13.00
2018-10-11T19:08:48.371Z,13.23
2018-10-11T19:11:18.625Z,20.83
2018-10-11T19:13:48.854Z,20.93
2018-10-11T19:16:19.046Z,17.00
2018-10-11T19:18:49.879Z,14.73
2018-10-11T19:21:20.043Z,13.57
2018-10-11T19:23:51.525Z,13.83
2018-10-11T19:26:22.485Z,14.53
2018-10-11T19:28:52.848Z,14.73
2018-10-11T19:31:24.243Z,14.63
2018-10-11T19:33:54.485Z,14.00
2018-10-11T19:36:25.035Z,13.90
2018-10-11T19:38:55.455Z,14.03
2018-10-11T19:41:25.773Z,13.90
2018-10-11T19:43:56.025Z,14.83
2018-10-11T19:46:26.283Z,15.10
2018-10-11T19:48:56.475Z,13.67
2018-10-11T19:51:27.996Z,13.63
2018-10-11T19:54:01.082Z,13.40
2018-10-11T19:56:34.177Z,14.00
2018-10-11T19:59:04.756Z,13.37
2018-10-11T20:01:34.906Z,14.13
2018-10-11T20:04:06.758Z,13.50
2018-10-11T20:06:39.104Z,13.87
2018-10-11T20:09:10.032Z,13.70
2018-10-11T20:11:40.580Z,14.50
2018-10-11T20:14:11.119Z,14.63
2018-10-11T20:16:41.877Z,17.33
2018-10-11T20:19:14.069Z,17.70
2018-10-11T20:21:44.512Z,15.13
2018-10-11T20:24:14.738Z,14.97
2018-10-11T20:26:45.406Z,14.83
2018-10-11T20:29:16.048Z,13.43
2018-10-11T20:31:46.735Z,15.27
2018-10-11T20:34:16.988Z,13.90
2018-10-11T20:36:47.115Z,14.60
2018-10-11T20:39:21.015Z,13.73
2018-10-11T20:41:51.375Z,14.83
2018-10-11T20:44:22.778Z,15.03
2018-10-11T20:46:53.010Z,14.00
2018-10-11T20:49:24.709Z,14.10
2018-10-11T20:51:55.219Z,14.60
2018-10-11T20:54:25.545Z,14.83
2018-10-11T20:56:55.706Z,15.10
2018-10-11T20:59:25.969Z,14.77
2018-10-11T21:01:57.463Z,14.50
2018-10-11T21:04:31.612Z,14.97
2018-10-11T21:07:04.185Z,15.17
2018-10-11T21:09:35.810Z,16.00
2018-10-11T21:12:07.058Z,16.17
2018-10-11T21:14:39.256Z,16.23
2018-10-11T21:17:10.635Z,15.90
2018-10-11T21:19:41.926Z,15.60
2018-10-11T21:22:13.660Z,15.33
2018-10-11T21:25:23.661Z,15.93
2018-10-11T21:27:55.598Z,16.93
2018-10-11T21:30:28.342Z,16.03
2018-10-11T21:33:00.691Z,16.40
2018-10-11T21:35:34.087Z,16.20
2018-10-11T21:38:06.317Z,16.60
2018-10-11T21:40:42.585Z,16.93
2018-10-11T21:43:16.218Z,17.40
2018-10-11T21:45:48.688Z,16.87
2018-10-11T21:48:22.328Z,16.77
2018-10-11T21:50:54.786Z,16.87
2018-10-11T21:53:26.106Z,16.90
2018-10-11T21:55:57.772Z,16.73
2018-10-11T21:58:30.859Z,16.63
2018-10-11T22:01:07.197Z,17.67
2018-10-11T22:03:38.959Z,16.43
2018-10-11T22:06:12.005Z,16.50
2018-10-11T22:08:43.897Z,17.47
2018-10-11T22:11:20.065Z,16.13
2018-10-11T22:13:54.881Z,17.90
2018-10-11T22:16:26.757Z,17.63
2018-10-11T22:18:58.452Z,17.33
2018-10-11T22:21:29.936Z,18.00
2018-10-11T22:24:01.050Z,17.97
2018-10-11T22:26:32.210Z,17.13
2018-10-11T22:29:05.797Z,17.50
2018-10-11T22:31:37.320Z,17.70
2018-10-11T22:34:08.655Z,17.10
2018-10-11T22:36:40.022Z,17.17
2018-10-11T22:39:13.246Z,18.27
2018-10-11T22:41:44.559Z,17.57
2018-10-11T22:44:16.864Z,18.57
2018-10-11T22:46:48.265Z,17.27
2018-10-11T22:49:21.055Z,17.57
2018-10-11T22:51:52.339Z,17.20
2018-10-11T22:54:24.926Z,18.83
2018-10-11T22:56:56.312Z,19.30
2018-10-11T22:59:28.195Z,17.87
2018-10-11T23:01:59.611Z,18.90
2018-10-11T23:04:33.694Z,19.60
2018-10-11T23:07:05.224Z,19.60
2018-10-11T23:09:37.694Z,19.33
2018-10-11T23:12:09.967Z,18.43
2018-10-11T23:14:41.495Z,18.80
2018-10-11T23:17:14.358Z,18.47
2018-10-11T23:19:45.732Z,19.23
2018-10-11T23:22:18.968Z,18.70
2018-10-11T23:24:50.628Z,18.63
2018-10-11T23:27:22.549Z,18.50
2018-10-11T23:29:54.590Z,17.10
2018-10-11T23:32:26.824Z,17.93
2018-10-11T23:34:58.295Z,17.67
2018-10-11T23:37:29.467Z,16.77
2018-10-11T23:40:02.595Z,17.90
2018-10-11T23:42:33.812Z,18.37
2018-10-11T23:45:06.146Z,18.23
2018-10-11T23:47:37.524Z,17.93
2018-10-11T23:50:09.241Z,17.80
2018-10-11T23:52:42.665Z,18.07
2018-10-11T23:55:14.686Z,17.87
2018-10-11T23:57:46.505Z,18.13
